Time;durP1;ratioP1;P1;durP2;ratioP2;P2;SDS_P1;SDS_P2;PMS_P1;PMS_P2;Temp;Humidity;BMP_temperature;BMP_pressure;BME280_temperature;BME280_humidity;BME280_pressure;Samples;Min_cycle;Max_cycle;Signal;HPM_P1;HPM_P2
2021/12/12 00:00:03;;;;;;;44.17;13.75;;;;;;;;;;5000203;28;20410;-82
2021/12/12 00:02:49;;;;;;;46.58;13.60;;;;;;;;;;5000059;28;20046;-81
2021/12/12 00:05:17;;;;;;;37.03;15.20;;;;;;;;;;4983188;28;20035;-82
2021/12/12 00:07:43;;;;;;;50.72;11.25;;;;;;;;;;4999631;28;20034;-81
2021/12/12 00:10:11;;;;;;;43.78;14.90;;;;;;;;;;5000832;28;20118;-81
2021/12/12 00:12:40;;;;;;;57.97;15.88;;;;;;;;;;4999710;28;20022;-81
2021/12/12 00:15:08;;;;;;;53.65;16.90;;;;;;;;;;4999918;28;20018;-81
2021/12/12 00:17:34;;;;;;;64.32;18.00;;;;;;;;;;4998054;28;20023;-82
2021/12/12 00:20:01;;;;;;;47.72;16.20;;;;;;;;;;4984337;28;20118;-82
2021/12/12 00:22:28;;;;;;;41.85;15.98;;;;;;;;;;4983077;28;20018;-82
2021/12/12 00:24:54;;;;;;;44.40;14.32;;;;;;;;;;5000975;28;20046;-81
2021/12/12 00:27:21;;;;;;;45.88;14.57;;;;;;;;;;4997980;28;20046;-81
2021/12/12 00:29:48;;;;;;;42.20;15.90;;;;;;;;;;4983929;28;20026;-82
2021/12/12 00:32:15;;;;;;;43.47;14.85;;;;;;;;;;4998699;28;20031;-81
2021/12/12 00:34:43;;;;;;;49.38;17.08;;;;;;;;;;4982547;28;20030;-82
2021/12/12 00:37:10;;;;;;;34.80;15.32;;;;;;;;;;4999410;28;20022;-81
2021/12/12 00:39:37;;;;;;;56.65;13.57;;;;;;;;;;5000924;28;20417;-82
2021/12/12 00:42:06;;;;;;;41.45;12.65;;;;;;;;;;4999039;28;20026;-82
2021/12/12 00:44:32;;;;;;;44.13;13.32;;;;;;;;;;4997767;28;20018;-81
2021/12/12 00:47:01;;;;;;;40.10;13.13;;;;;;;;;;4999662;28;20057;-81
2021/12/12 00:49:27;;;;;;;58.90;13.85;;;;;;;;;;4999451;28;20421;-82
2021/12/12 00:51:55;;;;;;;42.92;16.23;;;;;;;;;;4998988;28;20477;-82
2021/12/12 00:54:21;;;;;;;32.63;13.35;;;;;;;;;;4981327;28;20432;-81
2021/12/12 00:56:47;;;;;;;46.50;13.57;;;;;;;;;;4999051;28;20030;-83
2021/12/12 00:59:14;;;;;;;46.60;14.65;;;;;;;;;;4999438;28;20014;-82
2021/12/12 01:01:48;;;;;;;42.75;16.70;;;;;;;;;;4998703;28;20018;-82
2021/12/12 01:04:14;;;;;;;99.43;40.50;;;;;;;;;;4997774;28;20069;-81
2021/12/12 01:06:40;;;;;;;115.53;43.33;;;;;;;;;;4981834;28;20038;-81
2021/12/12 01:09:08;;;;;;;97.75;32.38;;;;;;;;;;4998008;28;20164;-81
2021/12/12 01:11:39;;;;;;;75.70;32.33;;;;;;;;;;4981727;28;20058;-81
2021/12/12 01:14:06;;;;;;;90.50;37.15;;;;;;;;;;4999412;28;20023;-82
2021/12/12 01:16:37;;;;;;;96.63;39.25;;;;;;;;;;4982303;28;20031;-81
2021/12/12 01:19:06;;;;;;;125.22;51.42;;;;;;;;;;4996413;28;20352;-81
2021/12/12 01:21:37;;;;;;;108.55;47.78;;;;;;;;;;4998074;28;20018;-82
2021/12/12 01:26:37;;;;;;;241.27;116.22;;;;;;;;;;5027585;23;20050;-82
2021/12/12 01:29:04;;;;;;;194.13;97.63;;;;;;;;;;4999427;28;20034;-81
2021/12/12 01:31:32;;;;;;;247.18;115.93;;;;;;;;;;4998860;28;20022;-82
2021/12/12 01:34:10;;;;;;;192.77;97.00;;;;;;;;;;4981111;28;20072;-81
2021/12/12 01:39:31;;;;;;;382.17;174.45;;;;;;;;;;4990448;28;20034;-82
2021/12/12 01:42:24;;;;;;;301.67;132.43;;;;;;;;;;4996598;28;20023;-81
2021/12/12 01:45:09;;;;;;;388.83;184.18;;;;;;;;;;4952522;28;20026;-82
2021/12/12 01:47:35;;;;;;;373.33;169.65;;;;;;;;;;4981387;28;20034;-81
2021/12/12 01:50:04;;;;;;;426.80;194.70;;;;;;;;;;4998358;28;20029;-82
2021/12/12 01:52:31;;;;;;;308.50;134.63;;;;;;;;;;4997870;28;20041;-81
2021/12/12 01:55:00;;;;;;;307.02;127.13;;;;;;;;;;4997206;28;20073;-81
2021/12/12 01:57:35;;;;;;;233.13;98.90;;;;;;;;;;4997368;28;20025;-81
2021/12/12 02:00:05;;;;;;;251.02;113.35;;;;;;;;;;4980468;28;20429;-81
2021/12/12 02:02:32;;;;;;;228.18;98.68;;;;;;;;;;4998933;28;20030;-82
2021/12/12 02:05:19;;;;;;;215.35;89.85;;;;;;;;;;4999127;28;20050;-81
2021/12/12 02:07:46;;;;;;;193.20;85.93;;;;;;;;;;5000899;28;20341;-81
2021/12/12 02:10:21;;;;;;;246.38;108.50;;;;;;;;;;5001055;28;20022;-82
2021/12/12 02:12:48;;;;;;;239.38;104.32;;;;;;;;;;5002836;28;20022;-81
2021/12/12 02:15:15;;;;;;;229.38;104.75;;;;;;;;;;5002911;28;20314;-81
2021/12/12 02:17:45;;;;;;;186.00;84.05;;;;;;;;;;5000542;28;20022;-81
2021/12/12 02:20:21;;;;;;;178.13;88.93;;;;;;;;;;5001897;28;20038;-82
2021/12/12 02:36:54;;;;;;;166.32;75.97;;;;;;;;;;4960972;29;20019;-81
2021/12/12 02:39:20;;;;;;;197.43;95.18;;;;;;;;;;4969900;28;20322;-82
2021/12/12 02:41:52;;;;;;;127.30;55.97;;;;;;;;;;4984216;28;20029;-81
2021/12/12 02:44:22;;;;;;;73.60;32.40;;;;;;;;;;5000408;28;20037;-81
2021/12/12 02:46:48;;;;;;;92.45;36.70;;;;;;;;;;5002036;28;20037;-82
2021/12/12 02:49:37;;;;;;;111.45;40.58;;;;;;;;;;5000751;28;20421;-82
2021/12/12 02:52:05;;;;;;;88.05;32.55;;;;;;;;;;5000049;28;20034;-81
2021/12/12 02:54:31;;;;;;;71.68;27.77;;;;;;;;;;5002267;28;20015;-81
2021/12/12 02:56:57;;;;;;;66.88;27.17;;;;;;;;;;5001101;28;20026;-81
2021/12/12 02:59:24;;;;;;;88.85;35.47;;;;;;;;;;4983195;28;20433;-81
2021/12/12 03:01:55;;;;;;;99.03;38.92;;;;;;;;;;4999732;28;20027;-82
2021/12/12 03:04:22;;;;;;;85.30;37.30;;;;;;;;;;5000757;28;20105;-82
2021/12/12 03:06:48;;;;;;;128.95;50.00;;;;;;;;;;5000661;28;20030;-81
2021/12/12 03:09:31;;;;;;;105.80;47.78;;;;;;;;;;4999191;28;20353;-81
2021/12/12 03:12:01;;;;;;;101.68;45.50;;;;;;;;;;5001069;28;20026;-81
2021/12/12 03:14:32;;;;;;;111.95;47.90;;;;;;;;;;4983844;28;20044;-81
2021/12/12 03:17:00;;;;;;;150.18;61.45;;;;;;;;;;4999755;28;20314;-81
2021/12/12 03:19:27;;;;;;;123.60;56.83;;;;;;;;;;4983392;28;20022;-81
2021/12/12 03:21:53;;;;;;;152.82;63.88;;;;;;;;;;5000793;28;20028;-81
2021/12/12 03:24:21;;;;;;;138.48;59.83;;;;;;;;;;4982820;28;20029;-81
2021/12/12 03:26:49;;;;;;;111.60;50.35;;;;;;;;;;5002272;28;20037;-81
2021/12/12 03:29:15;;;;;;;94.72;37.92;;;;;;;;;;5000707;28;20030;-81
2021/12/12 03:31:44;;;;;;;114.03;48.85;;;;;;;;;;5001438;28;20026;-81
2021/12/12 03:34:13;;;;;;;137.20;60.53;;;;;;;;;;5000313;28;20109;-82
2021/12/12 03:36:39;;;;;;;133.50;58.50;;;;;;;;;;4999529;28;20026;-82
2021/12/12 03:39:10;;;;;;;132.77;64.13;;;;;;;;;;5000500;28;20022;-83
2021/12/12 03:41:37;;;;;;;143.38;48.28;;;;;;;;;;4998636;28;20019;-82
2021/12/12 03:44:08;;;;;;;121.03;47.40;;;;;;;;;;5000182;28;20356;-82
2021/12/12 03:46:35;;;;;;;117.35;46.88;;;;;;;;;;4998985;28;20034;-84
2021/12/12 03:49:02;;;;;;;106.75;37.45;;;;;;;;;;4999361;28;20018;-83
2021/12/12 03:51:29;;;;;;;90.82;33.22;;;;;;;;;;5000717;28;20021;-82
2021/12/12 03:53:56;;;;;;;90.38;28.65;;;;;;;;;;4983136;28;20077;-82
2021/12/12 03:56:22;;;;;;;96.25;29.58;;;;;;;;;;5003170;28;20022;-83
2021/12/12 03:58:48;;;;;;;65.63;24.83;;;;;;;;;;5000218;28;20019;-82
2021/12/12 04:01:21;;;;;;;69.18;21.77;;;;;;;;;;5013447;23;20034;-82
2021/12/12 04:03:49;;;;;;;51.20;18.48;;;;;;;;;;4998607;28;20101;-82
2021/12/12 04:06:19;;;;;;;55.55;18.00;;;;;;;;;;5000702;28;20030;-82
2021/12/12 04:08:47;;;;;;;51.22;18.83;;;;;;;;;;4999692;28;20014;-83
2021/12/12 04:11:20;;;;;;;68.32;21.98;;;;;;;;;;4999021;28;20022;-82
2021/12/12 04:13:47;;;;;;;50.38;17.98;;;;;;;;;;5000205;28;20318;-82
2021/12/12 04:16:13;;;;;;;64.20;18.55;;;;;;;;;;4998382;28;20018;-82
2021/12/12 04:18:40;;;;;;;58.03;19.45;;;;;;;;;;4998508;28;20026;-82
2021/12/12 04:21:06;;;;;;;48.42;18.48;;;;;;;;;;4983988;28;20034;-82
2021/12/12 04:23:32;;;;;;;66.47;17.65;;;;;;;;;;4999863;28;20026;-82
2021/12/12 04:26:27;;;;;;;56.05;17.60;;;;;;;;;;4998117;28;20050;-82
2021/12/12 04:28:54;;;;;;;42.78;15.90;;;;;;;;;;4966521;28;20057;-83
2021/12/12 04:31:20;;;;;;;54.22;17.63;;;;;;;;;;5000642;28;20026;-83
2021/12/12 04:33:46;;;;;;;56.72;20.25;;;;;;;;;;5000490;28;20080;-83
2021/12/12 04:36:12;;;;;;;56.05;19.55;;;;;;;;;;4998319;28;20023;-82
2021/12/12 04:38:38;;;;;;;52.03;17.95;;;;;;;;;;5000591;28;20077;-83
2021/12/12 04:41:04;;;;;;;59.53;21.27;;;;;;;;;;4999922;28;20018;-82
2021/12/12 04:43:30;;;;;;;68.20;18.77;;;;;;;;;;5000182;28;20092;-82
2021/12/12 04:46:05;;;;;;;58.13;20.23;;;;;;;;;;4999309;28;20099;-82
2021/12/12 04:51:20;;;;;;;67.82;18.77;;;;;;;;;;4999004;28;20049;-82
2021/12/12 04:54:04;;;;;;;59.30;18.35;;;;;;;;;;4998354;28;20069;-82
2021/12/12 04:56:45;;;;;;;82.10;18.55;;;;;;;;;;4999930;28;20050;-83
2021/12/12 04:59:24;;;;;;;65.63;18.40;;;;;;;;;;4999076;28;20022;-82
2021/12/12 05:01:49;;;;;;;61.60;18.08;;;;;;;;;;4998192;28;20038;-82
2021/12/12 05:04:22;;;;;;;83.53;19.27;;;;;;;;;;4998458;28;20022;-83
2021/12/12 05:07:06;;;;;;;56.40;17.67;;;;;;;;;;4998040;28;20341;-83
2021/12/12 05:09:35;;;;;;;51.90;17.40;;;;;;;;;;4998806;28;20032;-81
2021/12/12 05:12:14;;;;;;;70.10;17.50;;;;;;;;;;4999096;28;20432;-82
2021/12/12 05:14:45;;;;;;;44.80;17.67;;;;;;;;;;4999267;28;20375;-82
2021/12/12 05:17:13;;;;;;;65.18;17.77;;;;;;;;;;4999192;28;20072;-83
2021/12/12 05:19:45;;;;;;;60.63;17.65;;;;;;;;;;4998757;28;20360;-83
2021/12/12 05:22:14;;;;;;;68.25;19.88;;;;;;;;;;4998156;28;20023;-83
2021/12/12 05:24:41;;;;;;;62.25;17.25;;;;;;;;;;4998771;28;20025;-83
2021/12/12 05:27:15;;;;;;;47.63;16.77;;;;;;;;;;4998970;28;20073;-82
2021/12/12 05:29:48;;;;;;;61.75;18.73;;;;;;;;;;4997977;28;20018;-82
2021/12/12 05:32:16;;;;;;;72.20;20.85;;;;;;;;;;5000033;28;20372;-84
2021/12/12 05:34:46;;;;;;;53.20;18.05;;;;;;;;;;4997661;28;20417;-83
2021/12/12 05:37:12;;;;;;;52.75;17.25;;;;;;;;;;4997597;28;20478;-82
2021/12/12 05:39:39;;;;;;;68.88;20.63;;;;;;;;;;5001035;28;20026;-82
2021/12/12 05:42:06;;;;;;;56.85;19.20;;;;;;;;;;5002695;28;20325;-82
2021/12/12 05:44:32;;;;;;;61.72;22.05;;;;;;;;;;5002471;28;20018;-83
2021/12/12 05:46:59;;;;;;;56.22;21.77;;;;;;;;;;5003480;28;20061;-83
2021/12/12 05:49:25;;;;;;;61.78;20.63;;;;;;;;;;5001964;28;20018;-82
2021/12/12 05:51:51;;;;;;;63.70;19.20;;;;;;;;;;5002506;28;20049;-82
2021/12/12 05:54:17;;;;;;;63.53;20.75;;;;;;;;;;5002514;28;20022;-82
2021/12/12 05:56:44;;;;;;;58.70;16.77;;;;;;;;;;5001839;28;20092;-82
2021/12/12 05:59:11;;;;;;;50.53;17.77;;;;;;;;;;5002433;28;20417;-83
2021/12/12 06:01:38;;;;;;;64.93;17.80;;;;;;;;;;5001157;28;20037;-82
2021/12/12 06:04:04;;;;;;;74.50;20.95;;;;;;;;;;5001946;28;20080;-82
2021/12/12 06:06:32;;;;;;;76.45;21.70;;;;;;;;;;5003301;28;20076;-82
2021/12/12 06:09:00;;;;;;;51.75;22.88;;;;;;;;;;5001589;28;20025;-82
2021/12/12 06:11:27;;;;;;;72.97;21.55;;;;;;;;;;5002445;28;20340;-83
2021/12/12 06:13:54;;;;;;;55.47;21.23;;;;;;;;;;5002199;28;20443;-82
2021/12/12 06:16:20;;;;;;;72.57;22.17;;;;;;;;;;5000878;28;20031;-82
2021/12/12 06:18:58;;;;;;;62.25;20.45;;;;;;;;;;5014542;23;20078;-78
2021/12/12 06:21:24;;;;;;;61.85;19.80;;;;;;;;;;5002001;28;20029;-77
2021/12/12 06:23:51;;;;;;;79.78;21.30;;;;;;;;;;5003420;28;20018;-78
2021/12/12 06:26:18;;;;;;;73.80;22.70;;;;;;;;;;5001464;28;20023;-78
2021/12/12 06:28:44;;;;;;;69.40;20.02;;;;;;;;;;5001394;28;20018;-78
2021/12/12 06:31:11;;;;;;;54.50;19.85;;;;;;;;;;4987860;28;20010;-78
2021/12/12 06:33:38;;;;;;;70.35;21.08;;;;;;;;;;5002428;28;20026;-77
2021/12/12 06:36:06;;;;;;;50.22;19.35;;;;;;;;;;5008722;23;20125;-83
2021/12/12 06:38:33;;;;;;;65.43;18.38;;;;;;;;;;5001349;28;20414;-83
2021/12/12 06:40:59;;;;;;;52.95;17.23;;;;;;;;;;5002444;28;20109;-83
2021/12/12 06:43:26;;;;;;;60.22;18.08;;;;;;;;;;4985401;28;20018;-83
2021/12/12 06:45:52;;;;;;;64.60;21.08;;;;;;;;;;5001304;28;20045;-83
2021/12/12 06:48:19;;;;;;;69.78;18.33;;;;;;;;;;4999772;28;20030;-83
2021/12/12 06:50:47;;;;;;;61.85;17.77;;;;;;;;;;5001475;28;20040;-84
2021/12/12 06:53:14;;;;;;;67.85;18.77;;;;;;;;;;5003208;28;20329;-84
2021/12/12 06:55:44;;;;;;;70.13;19.58;;;;;;;;;;4986683;28;20045;-83
2021/12/12 06:58:11;;;;;;;48.95;17.80;;;;;;;;;;5001444;28;20041;-83
2021/12/12 07:00:38;;;;;;;59.50;16.80;;;;;;;;;;5001703;28;20020;-84
2021/12/12 07:03:05;;;;;;;59.97;17.30;;;;;;;;;;5000676;28;20149;-83
2021/12/12 07:05:32;;;;;;;65.32;18.77;;;;;;;;;;4999799;28;20422;-82
2021/12/12 07:07:58;;;;;;;61.10;20.00;;;;;;;;;;5002880;28;20034;-83
2021/12/12 07:10:26;;;;;;;85.50;22.55;;;;;;;;;;5274743;23;20070;-77
2021/12/12 07:12:56;;;;;;;67.15;21.20;;;;;;;;;;5023803;23;20080;-82
2021/12/12 07:15:25;;;;;;;70.32;19.15;;;;;;;;;;5000338;28;20439;-82
2021/12/12 07:17:55;;;;;;;65.90;20.73;;;;;;;;;;5000716;28;20425;-82
2021/12/12 07:20:21;;;;;;;62.20;20.20;;;;;;;;;;5002633;28;20030;-82
2021/12/12 07:22:47;;;;;;;123.47;26.98;;;;;;;;;;5000713;28;20033;-82
2021/12/12 07:25:14;;;;;;;66.40;20.35;;;;;;;;;;4999881;28;20126;-82
2021/12/12 07:27:40;;;;;;;54.38;17.33;;;;;;;;;;5000128;28;20067;-82
2021/12/12 07:30:07;;;;;;;51.47;16.60;;;;;;;;;;5001705;28;20018;-82
2021/12/12 07:35:07;;;;;;;80.95;19.88;;;;;;;;;;5020752;23;20030;-77
2021/12/12 07:37:33;;;;;;;74.07;20.73;;;;;;;;;;5002932;28;20045;-78
2021/12/12 07:40:00;;;;;;;58.50;21.73;;;;;;;;;;5002582;28;20030;-78
2021/12/12 07:42:26;;;;;;;63.55;18.52;;;;;;;;;;5020214;23;20031;-82
2021/12/12 07:44:53;;;;;;;63.05;20.25;;;;;;;;;;5000883;28;20034;-82
2021/12/12 07:47:19;;;;;;;64.95;22.42;;;;;;;;;;5000606;28;20089;-83
2021/12/12 07:49:47;;;;;;;71.95;19.63;;;;;;;;;;5000058;28;20026;-82
2021/12/12 07:52:15;;;;;;;75.32;18.85;;;;;;;;;;5000317;28;20022;-83
2021/12/12 07:54:42;;;;;;;68.18;22.33;;;;;;;;;;5000575;28;20366;-82
2021/12/12 07:57:08;;;;;;;62.58;18.00;;;;;;;;;;5001628;28;20029;-83
2021/12/12 07:59:35;;;;;;;60.95;17.33;;;;;;;;;;4999170;28;20109;-82
2021/12/12 08:02:02;;;;;;;50.75;17.73;;;;;;;;;;4998095;28;20018;-82
2021/12/12 08:04:30;;;;;;;59.95;16.67;;;;;;;;;;4999183;28;20341;-82
2021/12/12 08:06:57;;;;;;;55.30;15.73;;;;;;;;;;5007229;23;20034;-82
2021/12/12 08:09:24;;;;;;;43.92;15.57;;;;;;;;;;5008079;23;20046;-83
2021/12/12 08:11:50;;;;;;;55.33;13.85;;;;;;;;;;4999863;28;20031;-82
2021/12/12 08:14:18;;;;;;;72.80;16.65;;;;;;;;;;5026242;23;20034;-82
2021/12/12 08:16:45;;;;;;;62.05;21.63;;;;;;;;;;5006959;23;20026;-82
2021/12/12 08:19:12;;;;;;;83.57;15.80;;;;;;;;;;4998516;28;20069;-82
2021/12/12 08:21:38;;;;;;;31.85;11.82;;;;;;;;;;5000358;28;20022;-82
2021/12/12 08:24:06;;;;;;;68.65;15.45;;;;;;;;;;4999841;28;20030;-82
2021/12/12 08:26:33;;;;;;;48.08;14.55;;;;;;;;;;4998750;28;20044;-82
2021/12/12 08:28:59;;;;;;;52.28;17.27;;;;;;;;;;4999422;28;20332;-81
2021/12/12 08:31:26;;;;;;;83.70;16.70;;;;;;;;;;5000922;28;20121;-81
2021/12/12 08:33:52;;;;;;;52.58;16.50;;;;;;;;;;4983472;28;20420;-81
2021/12/12 08:36:18;;;;;;;64.60;15.77;;;;;;;;;;4999281;28;20027;-82
2021/12/12 08:38:44;;;;;;;62.72;18.00;;;;;;;;;;4999482;28;20025;-82
2021/12/12 08:41:10;;;;;;;52.78;17.30;;;;;;;;;;4999080;28;20464;-82
2021/12/12 08:43:37;;;;;;;59.53;15.02;;;;;;;;;;4998811;28;20026;-82
2021/12/12 08:46:05;;;;;;;72.70;17.48;;;;;;;;;;4999291;28;20026;-81
2021/12/12 08:48:33;;;;;;;67.95;17.60;;;;;;;;;;5012728;23;20092;-82
2021/12/12 08:51:01;;;;;;;58.35;15.82;;;;;;;;;;5000590;28;20029;-81
2021/12/12 08:53:27;;;;;;;55.22;14.68;;;;;;;;;;4998708;28;20045;-82
2021/12/12 08:55:55;;;;;;;53.67;16.30;;;;;;;;;;5000759;28;20440;-81
2021/12/12 08:58:22;;;;;;;63.20;16.75;;;;;;;;;;4998869;28;20076;-81
2021/12/12 09:00:59;;;;;;;51.80;14.48;;;;;;;;;;5000430;28;20113;-82
2021/12/12 09:03:25;;;;;;;61.78;15.02;;;;;;;;;;4983124;28;20118;-81
2021/12/12 09:05:51;;;;;;;45.28;16.88;;;;;;;;;;4999203;28;20064;-81
2021/12/12 09:08:22;;;;;;;63.75;17.08;;;;;;;;;;5000671;28;20034;-82
2021/12/12 09:10:54;;;;;;;59.08;17.50;;;;;;;;;;4999714;28;20018;-82
2021/12/12 09:13:26;;;;;;;56.03;14.57;;;;;;;;;;5000788;28;20054;-82
2021/12/12 09:15:55;;;;;;;55.38;15.27;;;;;;;;;;4997887;28;20444;-81
2021/12/12 09:18:27;;;;;;;60.42;17.02;;;;;;;;;;4998771;28;20333;-82
2021/12/12 09:20:58;;;;;;;56.42;15.75;;;;;;;;;;4999347;28;20156;-82
2021/12/12 09:23:27;;;;;;;61.85;15.93;;;;;;;;;;4998907;28;20420;-82
2021/12/12 09:25:58;;;;;;;76.20;16.50;;;;;;;;;;4999007;28;20018;-82
2021/12/12 09:28:33;;;;;;;51.95;17.80;;;;;;;;;;5000892;28;20034;-82
2021/12/12 09:31:07;;;;;;;90.82;22.63;;;;;;;;;;4983244;28;20024;-81
2021/12/12 09:33:39;;;;;;;63.38;23.73;;;;;;;;;;5001757;28;20025;-82
2021/12/12 09:36:17;;;;;;;63.70;26.35;;;;;;;;;;5000792;28;20022;-82
2021/12/12 09:38:43;;;;;;;92.18;33.03;;;;;;;;;;5000190;28;20022;-82
2021/12/12 09:46:40;;;;;;;78.90;29.10;;;;;;;;;;5125740;23;20046;-82
2021/12/12 09:52:08;;;;;;;78.28;26.73;;;;;;;;;;4999694;28;20023;-82
2021/12/12 09:57:11;;;;;;;101.47;34.45;;;;;;;;;;5209745;23;19922;-76
2021/12/12 09:59:43;;;;;;;91.20;30.63;;;;;;;;;;4957933;28;20388;-76
2021/12/12 10:04:54;;;;;;;86.82;26.50;;;;;;;;;;5105636;23;20050;-81
2021/12/12 10:07:25;;;;;;;91.10;36.20;;;;;;;;;;5002316;28;20459;-81
2021/12/12 10:09:58;;;;;;;105.18;36.10;;;;;;;;;;4999130;28;20057;-81
2021/12/12 10:12:27;;;;;;;93.25;34.65;;;;;;;;;;4999663;28;20329;-81
2021/12/12 10:14:59;;;;;;;108.50;36.67;;;;;;;;;;4999190;28;20332;-81
2021/12/12 10:17:43;;;;;;;98.72;35.25;;;;;;;;;;4999213;28;20018;-81
2021/12/12 10:20:14;;;;;;;112.68;30.55;;;;;;;;;;4999441;28;20026;-81
2021/12/12 10:22:46;;;;;;;99.32;30.88;;;;;;;;;;5000248;28;20029;-82
2021/12/12 10:25:14;;;;;;;82.03;27.80;;;;;;;;;;4999923;28;20022;-81
2021/12/12 10:27:50;;;;;;;100.80;32.13;;;;;;;;;;5002806;28;20172;-81
2021/12/12 10:30:19;;;;;;;93.20;31.15;;;;;;;;;;5002797;28;20436;-81
2021/12/12 10:32:54;;;;;;;90.57;35.10;;;;;;;;;;5002706;28;20336;-81
2021/12/12 10:35:24;;;;;;;90.50;30.88;;;;;;;;;;5003033;28;20046;-81
2021/12/12 10:37:54;;;;;;;86.35;34.60;;;;;;;;;;5003144;28;20421;-81
2021/12/12 10:40:22;;;;;;;102.77;32.50;;;;;;;;;;5005251;28;20026;-81
2021/12/12 10:42:50;;;;;;;89.97;30.20;;;;;;;;;;5003402;28;20364;-81
2021/12/12 10:45:28;;;;;;;83.90;29.77;;;;;;;;;;5004225;28;20038;-81
2021/12/12 10:48:00;;;;;;;73.32;27.70;;;;;;;;;;5004508;28;20038;-81
2021/12/12 10:50:49;;;;;;;88.45;31.50;;;;;;;;;;4987359;28;20048;-81
2021/12/12 10:53:41;;;;;;;91.78;34.13;;;;;;;;;;4996590;28;20030;-81
2021/12/12 10:56:07;;;;;;;87.75;29.48;;;;;;;;;;4981307;28;20133;-81
2021/12/12 10:58:39;;;;;;;83.30;32.20;;;;;;;;;;5005058;28;20026;-81
2021/12/12 11:01:08;;;;;;;88.43;31.05;;;;;;;;;;5004848;28;20033;-81
2021/12/12 11:03:36;;;;;;;82.50;31.38;;;;;;;;;;4988694;28;20088;-81
2021/12/12 11:06:04;;;;;;;86.05;35.40;;;;;;;;;;5007707;28;20018;-81
2021/12/12 11:08:36;;;;;;;73.00;30.38;;;;;;;;;;5004138;28;20034;-81
2021/12/12 11:11:11;;;;;;;87.40;33.30;;;;;;;;;;5004517;28;20077;-81
2021/12/12 11:13:41;;;;;;;74.07;28.58;;;;;;;;;;5006240;28;20094;-81
2021/12/12 11:16:07;;;;;;;90.25;33.97;;;;;;;;;;5005666;28;20022;-81
2021/12/12 11:18:37;;;;;;;99.57;37.38;;;;;;;;;;4988899;28;20156;-81
2021/12/12 11:21:26;;;;;;;122.32;38.50;;;;;;;;;;5004395;28;20018;-81
2021/12/12 11:23:55;;;;;;;96.57;36.67;;;;;;;;;;5003329;28;20030;-81
2021/12/12 11:26:42;;;;;;;76.85;32.25;;;;;;;;;;5004354;28;20029;-81
2021/12/12 11:29:16;;;;;;;93.10;37.78;;;;;;;;;;5002769;28;20022;-80
2021/12/12 11:31:54;;;;;;;117.25;37.67;;;;;;;;;;5004387;28;20019;-80
2021/12/12 11:34:24;;;;;;;99.75;40.83;;;;;;;;;;4999054;28;20026;-80
2021/12/12 11:37:07;;;;;;;104.28;42.28;;;;;;;;;;4999968;28;20045;-80
2021/12/12 11:39:36;;;;;;;103.90;39.22;;;;;;;;;;4983845;28;20058;-80
2021/12/12 11:42:14;;;;;;;109.95;44.55;;;;;;;;;;4982906;28;20107;-80
2021/12/12 11:44:59;;;;;;;95.88;41.47;;;;;;;;;;4999182;28;20018;-80
2021/12/12 11:47:41;;;;;;;99.85;38.85;;;;;;;;;;5000590;28;20058;-80
2021/12/12 11:50:14;;;;;;;94.25;35.83;;;;;;;;;;4983329;28;20120;-83
2021/12/12 11:52:50;;;;;;;89.75;38.30;;;;;;;;;;4982586;28;20305;-80
2021/12/12 11:57:56;;;;;;;106.57;39.47;;;;;;;;;;5024518;23;20377;-79
2021/12/12 12:00:25;;;;;;;99.53;40.90;;;;;;;;;;5001403;28;20029;-79
2021/12/12 12:03:10;;;;;;;110.18;37.83;;;;;;;;;;4999206;28;20428;-76
2021/12/12 12:05:39;;;;;;;100.45;39.15;;;;;;;;;;4999165;28;20111;-76
2021/12/12 12:08:40;;;;;;;119.38;44.20;;;;;;;;;;4999342;28;20037;-76
2021/12/12 12:11:18;;;;;;;110.45;41.08;;;;;;;;;;4938765;29;20496;-76
2021/12/12 12:13:48;;;;;;;105.65;38.80;;;;;;;;;;4988644;28;20034;-76
2021/12/12 12:16:32;;;;;;;96.40;37.85;;;;;;;;;;4999263;28;20022;-76
2021/12/12 12:19:17;;;;;;;92.80;34.22;;;;;;;;;;4997443;28;20129;-76
2021/12/12 12:22:11;;;;;;;94.65;38.05;;;;;;;;;;4997752;28;20050;-76
2021/12/12 12:24:58;;;;;;;110.28;36.85;;;;;;;;;;4981602;28;20088;-76
2021/12/12 12:27:35;;;;;;;95.57;34.35;;;;;;;;;;5002232;28;20487;-76
2021/12/12 12:30:01;;;;;;;106.88;34.85;;;;;;;;;;4999197;28;20409;-76
2021/12/12 12:32:45;;;;;;;92.03;36.25;;;;;;;;;;4998969;28;20344;-76
2021/12/12 12:35:20;;;;;;;96.80;38.50;;;;;;;;;;4998829;28;20050;-77
2021/12/12 12:38:09;;;;;;;99.43;37.35;;;;;;;;;;4999018;28;20340;-77
2021/12/12 12:40:54;;;;;;;125.72;42.20;;;;;;;;;;4989228;28;20460;-77
2021/12/12 12:43:39;;;;;;;111.80;44.00;;;;;;;;;;4999084;28;20034;-77
2021/12/12 12:46:23;;;;;;;98.32;38.55;;;;;;;;;;4998664;28;20441;-77
2021/12/12 12:49:07;;;;;;;84.57;36.10;;;;;;;;;;4997644;28;20034;-77
2021/12/12 12:51:52;;;;;;;89.95;33.70;;;;;;;;;;4997441;28;20048;-77
2021/12/12 12:54:32;;;;;;;103.18;39.13;;;;;;;;;;4998510;28;20030;-77
2021/12/12 12:57:02;;;;;;;98.82;37.90;;;;;;;;;;4999574;28;20081;-77
2021/12/12 12:59:50;;;;;;;104.70;38.17;;;;;;;;;;4997591;28;20018;-77
2021/12/12 13:02:16;;;;;;;106.50;42.90;;;;;;;;;;4998466;28;20256;-77
2021/12/12 13:04:57;;;;;;;119.82;44.45;;;;;;;;;;4998460;28;20033;-77
2021/12/12 13:07:23;;;;;;;;;;;;;;;;;;4986867;23;20042;-81
2021/12/12 13:09:49;;;;;;;119.22;44.60;;;;;;;;;;5000293;28;19906;-81
2021/12/12 13:12:33;;;;;;;128.75;46.13;;;;;;;;;;4998037;28;20336;-82
2021/12/12 13:15:26;;;;;;;115.55;45.95;;;;;;;;;;4997883;28;20344;-82
2021/12/12 13:18:17;;;;;;;120.65;47.83;;;;;;;;;;4968222;28;20121;-82
2021/12/12 13:20:43;;;;;;;147.93;51.25;;;;;;;;;;4981438;28;20053;-82
2021/12/12 13:23:10;;;;;;;112.35;49.70;;;;;;;;;;4997415;28;20310;-82
2021/12/12 13:25:40;;;;;;;120.50;51.42;;;;;;;;;;4999410;28;20029;-82
2021/12/12 13:28:17;;;;;;;173.70;79.68;;;;;;;;;;4998851;28;20035;-82
2021/12/12 13:30:48;;;;;;;176.65;76.82;;;;;;;;;;4981230;28;20018;-82
2021/12/12 13:33:13;;;;;;;;;;;;;;;;;;4999579;28;20072;-82
2021/12/12 13:35:41;;;;;;;165.38;69.03;;;;;;;;;;4997340;28;19996;-82
2021/12/12 13:38:13;;;;;;;141.57;50.30;;;;;;;;;;4999537;28;20098;-82
2021/12/12 13:40:45;;;;;;;133.52;56.90;;;;;;;;;;5000793;28;20014;-82
2021/12/12 13:43:18;;;;;;;127.32;48.97;;;;;;;;;;4981416;28;20068;-82
2021/12/12 13:45:59;;;;;;;118.35;43.95;;;;;;;;;;4997108;28;20050;-81
2021/12/12 13:48:31;;;;;;;110.45;41.53;;;;;;;;;;4999788;28;20328;-82
2021/12/12 13:51:06;;;;;;;102.30;38.58;;;;;;;;;;4997756;28;20018;-82
2021/12/12 13:53:51;;;;;;;97.20;42.47;;;;;;;;;;4998539;28;20113;-81
2021/12/12 13:56:26;;;;;;;122.10;46.97;;;;;;;;;;4996480;28;20049;-81
2021/12/12 13:58:52;;;;;;;117.30;48.55;;;;;;;;;;4996947;28;20417;-82
2021/12/12 14:01:23;;;;;;;123.95;51.95;;;;;;;;;;4998214;28;20128;-81
2021/12/12 14:03:51;;;;;;;101.05;48.40;;;;;;;;;;5004004;28;20050;-81
2021/12/12 14:06:21;;;;;;;114.78;47.40;;;;;;;;;;4985627;28;20070;-81
2021/12/12 14:08:52;;;;;;;125.60;42.93;;;;;;;;;;5002301;28;20041;-81
2021/12/12 14:11:26;;;;;;;107.53;38.83;;;;;;;;;;4984253;28;20093;-81
2021/12/12 14:13:54;;;;;;;95.43;37.95;;;;;;;;;;5000535;28;20372;-81
2021/12/12 14:16:24;;;;;;;122.90;41.10;;;;;;;;;;5001209;28;20022;-81
2021/12/12 14:18:52;;;;;;;95.00;34.87;;;;;;;;;;5002966;28;20022;-81
2021/12/12 14:21:20;;;;;;;86.32;32.17;;;;;;;;;;5031463;23;20295;-76
2021/12/12 14:23:46;;;;;;;67.85;31.45;;;;;;;;;;5001624;28;20030;-76
2021/12/12 14:26:15;;;;;;;96.97;31.73;;;;;;;;;;5001913;28;20452;-76
2021/12/12 14:28:44;;;;;;;84.68;33.78;;;;;;;;;;5000100;28;20038;-76
2021/12/12 14:31:11;;;;;;;84.18;35.47;;;;;;;;;;5001373;28;20053;-76
2021/12/12 14:33:42;;;;;;;86.30;31.15;;;;;;;;;;4999983;28;20018;-76
2021/12/12 14:36:27;;;;;;;88.35;34.30;;;;;;;;;;5001233;28;20022;-76
2021/12/12 14:38:56;;;;;;;87.07;35.33;;;;;;;;;;5000674;28;20086;-76
2021/12/12 14:41:31;;;;;;;90.70;31.77;;;;;;;;;;4999842;28;20336;-76
2021/12/12 14:43:57;;;;;;;70.55;29.20;;;;;;;;;;5001945;28;20030;-76
2021/12/12 14:46:33;;;;;;;73.57;27.35;;;;;;;;;;5000394;28;20018;-76
2021/12/12 14:49:01;;;;;;;75.45;24.20;;;;;;;;;;4999834;28;20026;-75
2021/12/12 14:51:29;;;;;;;68.65;25.60;;;;;;;;;;5000967;28;20436;-76
2021/12/12 14:54:00;;;;;;;83.28;26.35;;;;;;;;;;5000971;28;20425;-76
2021/12/12 14:56:30;;;;;;;76.55;23.88;;;;;;;;;;5000915;28;20033;-76
2021/12/12 14:59:00;;;;;;;54.35;19.98;;;;;;;;;;5000354;28;20019;-76
2021/12/12 15:02:02;;;;;;;58.92;18.50;;;;;;;;;;5000891;28;20072;-76
2021/12/12 15:04:30;;;;;;;52.90;18.83;;;;;;;;;;4925047;29;20383;-76
2021/12/12 15:07:01;;;;;;;69.95;27.23;;;;;;;;;;4988847;28;20456;-76
2021/12/12 15:09:30;;;;;;;62.35;20.73;;;;;;;;;;5000649;28;20026;-76
2021/12/12 15:11:56;;;;;;;61.65;21.75;;;;;;;;;;5001018;28;20014;-76
2021/12/12 15:14:25;;;;;;;62.92;24.10;;;;;;;;;;4999896;28;20029;-76